WetterOnline ( http://www.wetteronline.de )

Wetter aktuell Roth

Aktuelles Wetter: Roth (386m)

6-stündlich | Neueste Meldungen
Ortszeit Temperatur Wetter
Di, 14.08. 14:00 21.3° C bewölkt
Di, 14.08. 8:00 16.6° C wolkig
Di, 14.08. 2:00 16.1° C bedeckt
Mo, 13.08. 20:00 22.4° C bedeckt
Mo, 13.08. 14:00 26.1° C bewölkt
Mo, 13.08. 8:00 18.7° C wolkenlos
Mo, 13.08. 2:00 16.6° C wolkenlos
So, 12.08. 20:00 24.6° C leicht bewölkt
Ortszeit Temperatur Wetter
Di, 14.08. 19:00 21.0° C bewölkt
Di, 14.08. 18:50 21.0° C bewölkt
Di, 14.08. 18:40 20.8° C bedeckt
Di, 14.08. 18:30 20.6° C bedeckt
Di, 14.08. 18:20 20.6° C bedeckt
Di, 14.08. 18:10 20.7° C bewölkt
Di, 14.08. 18:00 20.8° C bewölkt
Di, 14.08. 17:30 21.5° C bedeckt
Di, 14.08. 17:00 21.5° C bedeckt
Di, 14.08. 16:30 20.5° C bedeckt
Di, 14.08. 16:00 21.4° C bedeckt
Ortszeit Relative Feuchte Sichtweite
Di, 14.08. 14:00 52% 60 km
Di, 14.08. 8:00 87% 30 km
Di, 14.08. 2:00 92% 45 km
Mo, 13.08. 20:00 56% 55 km
Mo, 13.08. 14:00 44% 30 km
Mo, 13.08. 8:00 68% 35 km
Mo, 13.08. 2:00 65% 50 km
So, 12.08. 20:00 35% 70 km
Ortszeit Relative Feuchte Sichtweite
Di, 14.08. 19:00 58% 50 km
Di, 14.08. 18:50 58% -
Di, 14.08. 18:40 58% -
Di, 14.08. 18:30 58% 55 km
Di, 14.08. 18:20 58% -
Di, 14.08. 18:10 57% -
Di, 14.08. 18:00 56% 55 km
Di, 14.08. 17:30 54% 65 km
Di, 14.08. 17:00 53% 60 km
Di, 14.08. 16:30 58% 70 km
Di, 14.08. 16:00 52% 70 km
Ortszeit Niederschlagsmenge Niederschlagsart
Di, 14.08. 14:00 0.0 l/m2 in 6 Std. -
Di, 14.08. 8:00 2 l/m2 in 12 Std. -
Di, 14.08. 2:00 2 l/m2 in 6 Std. Regen
Mo, 13.08. 20:00 0.1 l/m2 in 12 Std. Regen
Mo, 13.08. 14:00 0.0 l/m2 in 6 Std. -
Mo, 13.08. 8:00 0.0 l/m2 in 12 Std. -
Mo, 13.08. 2:00 0.0 l/m2 in 6 Std. -
So, 12.08. 20:00 0.1 l/m2 in 12 Std. -
Ortszeit Niederschlagsmenge Niederschlagsart
Di, 14.08. 19:00 0.0 l/m2 in 1 Std. -
Di, 14.08. 18:50 keine Meldung -
Di, 14.08. 18:40 keine Meldung -
Di, 14.08. 18:30 0.0 l/m2 in 1 Std. -
Di, 14.08. 18:20 keine Meldung -
Di, 14.08. 18:10 keine Meldung -
Di, 14.08. 18:00 0.1 l/m2 in 1 Std. Regen
Di, 14.08. 17:30 0.0 l/m2 in 1 Std. -
Di, 14.08. 17:00 0.1 l/m2 in 1 Std. Regen
Di, 14.08. 16:30 0.1 l/m2 in 1 Std. Schneeregen
Di, 14.08. 16:00 0.0 l/m2 in 1 Std. -
Ortszeit Stärke Spitze Richtung
km/h Bft. km/h Grad Sektor
Di, 14.08. 14:00 20 4 37 280° W
Di, 14.08. 8:00 9 2 15 240° SW
Di, 14.08. 2:00 7 2 29 220° SW
Mo, 13.08. 20:00 7 2 40 200° S
Mo, 13.08. 14:00 29 5 50 290° W
Mo, 13.08. 8:00 0 0 7 - -
Mo, 13.08. 2:00 6 1 11 170° S
So, 12.08. 20:00 4 1 25 40° NO
Ortszeit Stärke Spitze Richtung
km/h Bft. km/h Grad Sektor
Di, 14.08. 19:00 9 2 26 310° NW
Di, 14.08. 18:50 9 2 - 310° NW
Di, 14.08. 18:40 11 2 - 320° NW
Di, 14.08. 18:30 14 3 25 310° NW
Di, 14.08. 18:20 14 3 - 310° NW
Di, 14.08. 18:10 15 3 - 310° NW
Di, 14.08. 18:00 17 3 28 320° NW
Di, 14.08. 17:30 9 2 22 310° NW
Di, 14.08. 17:00 11 2 19 310° NW
Di, 14.08. 16:30 11 2 18 270° W
Di, 14.08. 16:00 9 2 26 300° NW
Ortszeit Untergrenze Bedeckung Gattung
total tief tief mittel hoch
Di, 14.08. 14:00 1800 m 7/8 7/8 - - -
Di, 14.08. 8:00 2100 m 6/8 2/8 - - -
Di, 14.08. 2:00 3000 m 8/8 8/8 - - -
Mo, 13.08. 20:00 3300 m 8/8 8/8 - - -
Mo, 13.08. 14:00 2400 m 7/8 6/8 - - -
Mo, 13.08. 8:00 12000 m 0/8 0/8 - - -
Mo, 13.08. 2:00 - 0/8 0/8 - - -
So, 12.08. 20:00 9000 m 5/8 0/8 - - -
Ortszeit Bedeckungsgrad in Achtel und Wolkenuntergrenze
Di, 14.08. 19:00 5(1800m) 8(3000m)
Di, 14.08. 18:50 5(1800m) 8(3000m)
Di, 14.08. 18:40 8(1800m)
Di, 14.08. 18:30 6(1800m) 8(2100m)
Di, 14.08. 18:20 6(1800m) 8(2100m)
Di, 14.08. 18:10 7(1800m) 7(2400m) 8(3000m)
Di, 14.08. 18:00 1(1440m) 7(1800m) 8(3000m)
Di, 14.08. 17:30 1(2100m) 8(2700m) 8(2400m)
Di, 14.08. 17:00 2(1800m) 3(2100m) 8(2700m)
Di, 14.08. 16:30 6(1440m) 8(1800m) 8(2700m)
Di, 14.08. 16:00 1(1440m) 7(1800m) 8(2400m)
Ortszeit Luftdruck NN (hPa) Tendenz (hPa in 3 Std.)
Di, 14.08. 14:00 1014 + 0,3
Di, 14.08. 8:00 1014 + 1,7
Di, 14.08. 2:00 1012 + 0,6
Mo, 13.08. 20:00 1009 - 0,6
Mo, 13.08. 14:00 1010 + 1,1
Mo, 13.08. 8:00 1010 - 0,3
Mo, 13.08. 2:00 1012 - 1,0
So, 12.08. 20:00 1012 - 1,6
Ortszeit Luftdruck NN (hPa) Tendenz (hPa in 3 Std.)
Di, 14.08. 19:00 1015 + 0,8
Di, 14.08. 18:50 1015 keine Meldung
Di, 14.08. 18:40 1015 keine Meldung
Di, 14.08. 18:30 1015 + 0,6
Di, 14.08. 18:20 1015 keine Meldung
Di, 14.08. 18:10 1015 keine Meldung
Di, 14.08. 18:00 1015 + 0,6
Di, 14.08. 17:30 1015 + 0,3
Di, 14.08. 17:00 1015 + 0,4
Di, 14.08. 16:30 1015 + 0,6
Di, 14.08. 16:00 1015 + 0,6
Ortszeit Schneehöhe (cm)
Di, 14.08. 14:00 -
Di, 14.08. 8:00 -
Di, 14.08. 2:00 -
Mo, 13.08. 20:00 -
Mo, 13.08. 14:00 -
Mo, 13.08. 8:00 -
Mo, 13.08. 2:00 -
So, 12.08. 20:00 -
Ortszeit Schneehöhe (cm)
Di, 14.08. 19:00 -
Di, 14.08. 18:50 -
Di, 14.08. 18:40 -
Di, 14.08. 18:30 -
Di, 14.08. 18:20 -
Di, 14.08. 18:10 -
Di, 14.08. 18:00 -
Di, 14.08. 17:30 -
Di, 14.08. 17:00 -
Di, 14.08. 16:30 -
Di, 14.08. 16:00 -
Link zu dieser Seite / Seite empfehlen

Das Wetter in ...